sensor_id;sensor_type;location;lat;lon;timestamp;P1;durP1;ratioP1;P2;durP2;ratioP2
43670;SDS011;29267;50.906;7.248;2023-08-07T00:02:16;13.48;;;3.08;;
43670;SDS011;29267;50.906;7.248;2023-08-07T00:04:42;15.27;;;3.50;;
43670;SDS011;29267;50.906;7.248;2023-08-07T00:07:07;17.40;;;3.38;;
43670;SDS011;29267;50.906;7.248;2023-08-07T00:09:33;17.27;;;2.97;;
43670;SDS011;29267;50.906;7.248;2023-08-07T00:11:58;13.68;;;3.50;;
43670;SDS011;29267;50.906;7.248;2023-08-07T00:14:24;10.90;;;2.97;;
43670;SDS011;29267;50.906;7.248;2023-08-07T00:16:49;14.30;;;3.70;;
43670;SDS011;29267;50.906;7.248;2023-08-07T00:19:15;12.57;;;3.13;;
43670;SDS011;29267;50.906;7.248;2023-08-07T00:21:41;10.77;;;2.83;;
43670;SDS011;29267;50.906;7.248;2023-08-07T00:24:07;13.77;;;3.70;;
43670;SDS011;29267;50.906;7.248;2023-08-07T00:26:32;16.52;;;3.22;;
43670;SDS011;29267;50.906;7.248;2023-08-07T00:28:58;14.48;;;3.40;;
43670;SDS011;29267;50.906;7.248;2023-08-07T00:31:24;8.30;;;2.95;;
43670;SDS011;29267;50.906;7.248;2023-08-07T00:33:49;15.32;;;3.20;;
43670;SDS011;29267;50.906;7.248;2023-08-07T00:36:18;14.23;;;2.97;;
43670;SDS011;29267;50.906;7.248;2023-08-07T00:38:44;9.20;;;2.72;;
43670;SDS011;29267;50.906;7.248;2023-08-07T00:41:10;11.20;;;3.38;;
43670;SDS011;29267;50.906;7.248;2023-08-07T00:43:35;10.38;;;3.28;;
43670;SDS011;29267;50.906;7.248;2023-08-07T00:46:01;10.15;;;3.42;;
43670;SDS011;29267;50.906;7.248;2023-08-07T00:48:27;14.65;;;3.92;;
43670;SDS011;29267;50.906;7.248;2023-08-07T00:50:53;9.70;;;3.25;;
43670;SDS011;29267;50.906;7.248;2023-08-07T00:53:19;8.88;;;4.13;;
43670;SDS011;29267;50.906;7.248;2023-08-07T00:55:45;9.57;;;4.15;;
43670;SDS011;29267;50.906;7.248;2023-08-07T00:58:11;9.15;;;3.78;;
43670;SDS011;29267;50.906;7.248;2023-08-07T01:00:37;5.50;;;3.63;;
43670;SDS011;29267;50.906;7.248;2023-08-07T01:03:06;12.20;;;3.55;;
43670;SDS011;29267;50.906;7.248;2023-08-07T01:05:32;13.40;;;4.03;;
43670;SDS011;29267;50.906;7.248;2023-08-07T01:07:59;21.63;;;4.00;;
43670;SDS011;29267;50.906;7.248;2023-08-07T01:13:38;11.00;;;4.18;;
43670;SDS011;29267;50.906;7.248;2023-08-07T01:16:11;15.52;;;4.57;;
43670;SDS011;29267;50.906;7.248;2023-08-07T01:18:41;9.38;;;3.78;;
43670;SDS011;29267;50.906;7.248;2023-08-07T01:21:19;9.07;;;3.40;;
43670;SDS011;29267;50.906;7.248;2023-08-07T01:23:48;10.68;;;3.75;;
43670;SDS011;29267;50.906;7.248;2023-08-07T01:26:17;10.98;;;3.25;;
43670;SDS011;29267;50.906;7.248;2023-08-07T01:28:50;10.35;;;3.85;;
43670;SDS011;29267;50.906;7.248;2023-08-07T01:31:31;11.25;;;2.83;;
43670;SDS011;29267;50.906;7.248;2023-08-07T01:34:00;13.50;;;3.88;;
43670;SDS011;29267;50.906;7.248;2023-08-07T01:36:29;11.60;;;3.38;;
43670;SDS011;29267;50.906;7.248;2023-08-07T01:38:56;8.52;;;3.42;;
43670;SDS011;29267;50.906;7.248;2023-08-07T01:41:24;7.93;;;4.03;;
43670;SDS011;29267;50.906;7.248;2023-08-07T01:43:50;5.65;;;3.10;;
43670;SDS011;29267;50.906;7.248;2023-08-07T01:46:17;10.27;;;3.45;;
43670;SDS011;29267;50.906;7.248;2023-08-07T01:48:43;10.98;;;3.50;;
43670;SDS011;29267;50.906;7.248;2023-08-07T01:51:09;15.05;;;4.35;;
43670;SDS011;29267;50.906;7.248;2023-08-07T01:53:34;13.25;;;4.10;;
43670;SDS011;29267;50.906;7.248;2023-08-07T01:56:00;10.88;;;3.97;;
43670;SDS011;29267;50.906;7.248;2023-08-07T01:58:26;10.05;;;3.08;;
43670;SDS011;29267;50.906;7.248;2023-08-07T02:00:51;9.13;;;3.80;;
43670;SDS011;29267;50.906;7.248;2023-08-07T02:03:17;11.50;;;4.40;;
43670;SDS011;29267;50.906;7.248;2023-08-07T02:05:47;10.23;;;4.20;;
43670;SDS011;29267;50.906;7.248;2023-08-07T02:08:12;9.40;;;4.25;;
43670;SDS011;29267;50.906;7.248;2023-08-07T02:10:38;10.18;;;3.63;;
43670;SDS011;29267;50.906;7.248;2023-08-07T02:13:04;14.27;;;4.07;;
43670;SDS011;29267;50.906;7.248;2023-08-07T02:15:29;11.95;;;4.25;;
43670;SDS011;29267;50.906;7.248;2023-08-07T02:17:55;12.13;;;4.47;;
43670;SDS011;29267;50.906;7.248;2023-08-07T02:20:21;11.45;;;4.18;;
43670;SDS011;29267;50.906;7.248;2023-08-07T02:22:46;10.40;;;3.58;;
43670;SDS011;29267;50.906;7.248;2023-08-07T02:25:12;23.33;;;6.28;;
43670;SDS011;29267;50.906;7.248;2023-08-07T02:27:38;14.48;;;3.67;;
43670;SDS011;29267;50.906;7.248;2023-08-07T02:30:04;17.83;;;5.03;;
43670;SDS011;29267;50.906;7.248;2023-08-07T02:32:30;10.82;;;4.55;;
43670;SDS011;29267;50.906;7.248;2023-08-07T02:34:56;16.27;;;4.05;;
43670;SDS011;29267;50.906;7.248;2023-08-07T02:37:21;19.13;;;4.85;;
43670;SDS011;29267;50.906;7.248;2023-08-07T02:39:47;19.23;;;5.28;;
43670;SDS011;29267;50.906;7.248;2023-08-07T02:42:13;21.95;;;4.47;;
43670;SDS011;29267;50.906;7.248;2023-08-07T02:44:38;19.67;;;3.75;;
43670;SDS011;29267;50.906;7.248;2023-08-07T02:47:04;22.30;;;5.35;;
43670;SDS011;29267;50.906;7.248;2023-08-07T02:49:31;15.68;;;4.68;;
43670;SDS011;29267;50.906;7.248;2023-08-07T02:51:56;14.05;;;4.63;;
43670;SDS011;29267;50.906;7.248;2023-08-07T02:54:22;13.15;;;4.40;;
43670;SDS011;29267;50.906;7.248;2023-08-07T02:56:47;19.27;;;4.57;;
43670;SDS011;29267;50.906;7.248;2023-08-07T02:59:14;11.80;;;4.90;;
43670;SDS011;29267;50.906;7.248;2023-08-07T03:01:40;12.52;;;3.55;;
43670;SDS011;29267;50.906;7.248;2023-08-07T03:04:05;10.35;;;3.67;;
43670;SDS011;29267;50.906;7.248;2023-08-07T03:06:31;12.80;;;3.72;;
43670;SDS011;29267;50.906;7.248;2023-08-07T03:08:57;8.70;;;3.53;;
43670;SDS011;29267;50.906;7.248;2023-08-07T03:11:22;10.90;;;3.63;;
43670;SDS011;29267;50.906;7.248;2023-08-07T03:13:48;10.68;;;3.38;;
43670;SDS011;29267;50.906;7.248;2023-08-07T03:16:14;11.30;;;4.32;;
43670;SDS011;29267;50.906;7.248;2023-08-07T03:18:40;12.38;;;4.82;;
43670;SDS011;29267;50.906;7.248;2023-08-07T03:21:05;11.43;;;3.78;;
43670;SDS011;29267;50.906;7.248;2023-08-07T03:23:31;15.25;;;4.88;;
43670;SDS011;29267;50.906;7.248;2023-08-07T03:26:03;12.52;;;4.75;;
43670;SDS011;29267;50.906;7.248;2023-08-07T03:28:29;17.67;;;4.90;;
43670;SDS011;29267;50.906;7.248;2023-08-07T03:30:55;11.80;;;4.72;;
43670;SDS011;29267;50.906;7.248;2023-08-07T03:33:20;17.75;;;4.40;;
43670;SDS011;29267;50.906;7.248;2023-08-07T03:35:46;16.23;;;5.07;;
43670;SDS011;29267;50.906;7.248;2023-08-07T03:38:11;24.38;;;4.60;;
43670;SDS011;29267;50.906;7.248;2023-08-07T03:40:37;12.93;;;3.88;;
43670;SDS011;29267;50.906;7.248;2023-08-07T03:43:02;13.75;;;4.38;;
43670;SDS011;29267;50.906;7.248;2023-08-07T03:45:28;25.60;;;5.20;;
43670;SDS011;29267;50.906;7.248;2023-08-07T03:47:54;19.13;;;4.40;;
43670;SDS011;29267;50.906;7.248;2023-08-07T03:50:19;12.70;;;3.83;;
43670;SDS011;29267;50.906;7.248;2023-08-07T03:52:45;18.80;;;4.07;;
43670;SDS011;29267;50.906;7.248;2023-08-07T03:55:10;11.07;;;3.45;;
43670;SDS011;29267;50.906;7.248;2023-08-07T03:57:36;13.77;;;3.67;;
43670;SDS011;29267;50.906;7.248;2023-08-07T04:00:02;13.15;;;5.00;;
43670;SDS011;29267;50.906;7.248;2023-08-07T04:02:28;27.08;;;5.20;;
43670;SDS011;29267;50.906;7.248;2023-08-07T04:04:54;24.70;;;4.57;;
43670;SDS011;29267;50.906;7.248;2023-08-07T04:07:19;13.10;;;4.03;;
43670;SDS011;29267;50.906;7.248;2023-08-07T04:09:45;14.68;;;4.40;;
43670;SDS011;29267;50.906;7.248;2023-08-07T04:12:10;18.25;;;4.80;;
43670;SDS011;29267;50.906;7.248;2023-08-07T04:14:36;11.25;;;4.30;;
43670;SDS011;29267;50.906;7.248;2023-08-07T04:17:02;13.27;;;5.38;;
43670;SDS011;29267;50.906;7.248;2023-08-07T04:19:28;17.55;;;4.45;;
43670;SDS011;29267;50.906;7.248;2023-08-07T04:21:53;19.58;;;4.75;;
43670;SDS011;29267;50.906;7.248;2023-08-07T04:24:19;18.75;;;5.13;;
43670;SDS011;29267;50.906;7.248;2023-08-07T04:26:44;22.27;;;5.00;;
43670;SDS011;29267;50.906;7.248;2023-08-07T04:29:10;13.85;;;4.90;;
43670;SDS011;29267;50.906;7.248;2023-08-07T04:31:35;16.10;;;4.03;;
43670;SDS011;29267;50.906;7.248;2023-08-07T04:34:01;10.23;;;4.95;;
43670;SDS011;29267;50.906;7.248;2023-08-07T04:36:27;12.43;;;4.20;;
43670;SDS011;29267;50.906;7.248;2023-08-07T04:38:52;11.93;;;4.55;;
43670;SDS011;29267;50.906;7.248;2023-08-07T04:41:20;12.40;;;4.70;;
43670;SDS011;29267;50.906;7.248;2023-08-07T04:43:46;17.75;;;5.13;;
43670;SDS011;29267;50.906;7.248;2023-08-07T04:46:13;11.40;;;4.82;;
43670;SDS011;29267;50.906;7.248;2023-08-07T04:48:39;14.30;;;5.00;;
43670;SDS011;29267;50.906;7.248;2023-08-07T04:51:05;20.02;;;5.90;;
43670;SDS011;29267;50.906;7.248;2023-08-07T04:53:30;17.98;;;6.20;;
43670;SDS011;29267;50.906;7.248;2023-08-07T04:55:56;19.85;;;5.95;;
43670;SDS011;29267;50.906;7.248;2023-08-07T04:58:21;9.70;;;4.65;;
43670;SDS011;29267;50.906;7.248;2023-08-07T05:00:47;13.45;;;5.32;;
43670;SDS011;29267;50.906;7.248;2023-08-07T05:03:13;12.70;;;5.47;;
43670;SDS011;29267;50.906;7.248;2023-08-07T05:05:40;13.82;;;6.20;;
43670;SDS011;29267;50.906;7.248;2023-08-07T05:08:06;13.52;;;5.63;;
43670;SDS011;29267;50.906;7.248;2023-08-07T05:10:31;12.70;;;4.15;;
43670;SDS011;29267;50.906;7.248;2023-08-07T05:12:57;20.08;;;5.05;;
43670;SDS011;29267;50.906;7.248;2023-08-07T05:15:23;25.60;;;5.68;;
43670;SDS011;29267;50.906;7.248;2023-08-07T05:17:49;11.43;;;4.40;;
43670;SDS011;29267;50.906;7.248;2023-08-07T05:20:15;12.35;;;4.82;;
43670;SDS011;29267;50.906;7.248;2023-08-07T05:22:42;16.02;;;4.47;;
43670;SDS011;29267;50.906;7.248;2023-08-07T05:25:08;14.90;;;5.57;;
43670;SDS011;29267;50.906;7.248;2023-08-07T05:27:34;13.20;;;4.40;;
43670;SDS011;29267;50.906;7.248;2023-08-07T05:30:00;17.98;;;4.85;;
43670;SDS011;29267;50.906;7.248;2023-08-07T05:32:26;16.88;;;5.75;;
43670;SDS011;29267;50.906;7.248;2023-08-07T05:34:51;13.05;;;4.72;;
43670;SDS011;29267;50.906;7.248;2023-08-07T05:37:17;15.40;;;4.78;;
43670;SDS011;29267;50.906;7.248;2023-08-07T05:39:42;16.23;;;5.45;;
43670;SDS011;29267;50.906;7.248;2023-08-07T05:42:08;13.40;;;4.53;;
43670;SDS011;29267;50.906;7.248;2023-08-07T05:44:35;9.85;;;5.18;;
43670;SDS011;29267;50.906;7.248;2023-08-07T05:47:00;12.82;;;4.82;;
43670;SDS011;29267;50.906;7.248;2023-08-07T05:49:26;12.30;;;4.65;;
43670;SDS011;29267;50.906;7.248;2023-08-07T05:51:52;13.98;;;4.40;;
43670;SDS011;29267;50.906;7.248;2023-08-07T05:54:18;21.40;;;5.03;;
43670;SDS011;29267;50.906;7.248;2023-08-07T05:56:43;13.77;;;4.28;;
43670;SDS011;29267;50.906;7.248;2023-08-07T05:59:09;14.35;;;4.32;;
43670;SDS011;29267;50.906;7.248;2023-08-07T06:01:34;11.02;;;4.05;;
43670;SDS011;29267;50.906;7.248;2023-08-07T06:04:02;12.55;;;4.43;;
43670;SDS011;29267;50.906;7.248;2023-08-07T06:06:27;19.58;;;4.55;;
43670;SDS011;29267;50.906;7.248;2023-08-07T06:08:54;14.23;;;4.32;;
43670;SDS011;29267;50.906;7.248;2023-08-07T06:11:19;14.63;;;4.28;;
43670;SDS011;29267;50.906;7.248;2023-08-07T06:13:45;9.60;;;3.15;;
43670;SDS011;29267;50.906;7.248;2023-08-07T06:16:11;12.35;;;3.35;;
43670;SDS011;29267;50.906;7.248;2023-08-07T06:18:36;13.82;;;4.43;;
43670;SDS011;29267;50.906;7.248;2023-08-07T06:21:03;9.80;;;2.90;;
43670;SDS011;29267;50.906;7.248;2023-08-07T06:23:31;14.38;;;4.63;;
43670;SDS011;29267;50.906;7.248;2023-08-07T06:25:58;15.55;;;4.35;;
43670;SDS011;29267;50.906;7.248;2023-08-07T06:28:23;16.98;;;4.30;;
43670;SDS011;29267;50.906;7.248;2023-08-07T06:30:49;17.60;;;4.45;;
43670;SDS011;29267;50.906;7.248;2023-08-07T06:33:15;9.73;;;3.58;;
43670;SDS011;29267;50.906;7.248;2023-08-07T06:35:40;7.50;;;3.13;;
43670;SDS011;29267;50.906;7.248;2023-08-07T06:38:07;12.27;;;3.60;;
43670;SDS011;29267;50.906;7.248;2023-08-07T06:40:34;12.75;;;3.50;;
43670;SDS011;29267;50.906;7.248;2023-08-07T06:43:00;10.68;;;3.15;;
43670;SDS011;29267;50.906;7.248;2023-08-07T06:45:26;16.73;;;3.55;;
43670;SDS011;29267;50.906;7.248;2023-08-07T06:47:51;16.15;;;3.25;;
43670;SDS011;29267;50.906;7.248;2023-08-07T06:50:17;10.98;;;3.38;;
43670;SDS011;29267;50.906;7.248;2023-08-07T06:52:42;13.70;;;4.00;;
43670;SDS011;29267;50.906;7.248;2023-08-07T06:55:08;11.32;;;3.50;;
43670;SDS011;29267;50.906;7.248;2023-08-07T06:57:34;10.30;;;3.95;;
43670;SDS011;29267;50.906;7.248;2023-08-07T07:00:00;10.38;;;3.95;;
43670;SDS011;29267;50.906;7.248;2023-08-07T07:02:25;9.02;;;3.08;;
43670;SDS011;29267;50.906;7.248;2023-08-07T07:04:51;11.65;;;3.72;;
43670;SDS011;29267;50.906;7.248;2023-08-07T07:07:16;14.00;;;3.38;;
43670;SDS011;29267;50.906;7.248;2023-08-07T07:09:42;8.57;;;3.58;;
43670;SDS011;29267;50.906;7.248;2023-08-07T07:12:08;7.25;;;3.47;;
43670;SDS011;29267;50.906;7.248;2023-08-07T07:14:33;13.85;;;3.65;;
43670;SDS011;29267;50.906;7.248;2023-08-07T07:16:59;14.13;;;3.92;;
43670;SDS011;29267;50.906;7.248;2023-08-07T07:19:25;13.73;;;4.28;;
43670;SDS011;29267;50.906;7.248;2023-08-07T07:21:51;8.20;;;3.35;;
43670;SDS011;29267;50.906;7.248;2023-08-07T07:24:16;11.43;;;3.78;;
43670;SDS011;29267;50.906;7.248;2023-08-07T07:26:42;14.60;;;3.63;;
43670;SDS011;29267;50.906;7.248;2023-08-07T07:29:08;14.52;;;3.20;;
43670;SDS011;29267;50.906;7.248;2023-08-07T07:31:34;12.10;;;3.83;;
43670;SDS011;29267;50.906;7.248;2023-08-07T07:33:59;9.27;;;2.97;;
43670;SDS011;29267;50.906;7.248;2023-08-07T07:36:25;11.82;;;3.47;;
43670;SDS011;29267;50.906;7.248;2023-08-07T07:38:50;6.93;;;2.88;;
43670;SDS011;29267;50.906;7.248;2023-08-07T07:41:16;9.80;;;3.25;;
43670;SDS011;29267;50.906;7.248;2023-08-07T07:43:42;7.80;;;3.50;;
43670;SDS011;29267;50.906;7.248;2023-08-07T07:46:08;8.15;;;2.97;;
43670;SDS011;29267;50.906;7.248;2023-08-07T07:48:34;6.93;;;2.70;;
43670;SDS011;29267;50.906;7.248;2023-08-07T07:51:03;7.97;;;2.83;;
43670;SDS011;29267;50.906;7.248;2023-08-07T07:53:29;6.93;;;2.83;;
43670;SDS011;29267;50.906;7.248;2023-08-07T07:55:55;7.78;;;3.08;;
43670;SDS011;29267;50.906;7.248;2023-08-07T07:58:21;6.32;;;2.75;;
43670;SDS011;29267;50.906;7.248;2023-08-07T08:00:48;5.70;;;2.88;;
43670;SDS011;29267;50.906;7.248;2023-08-07T08:03:13;9.18;;;4.20;;
43670;SDS011;29267;50.906;7.248;2023-08-07T08:05:39;7.18;;;3.45;;
43670;SDS011;29267;50.906;7.248;2023-08-07T08:08:05;11.52;;;3.20;;
43670;SDS011;29267;50.906;7.248;2023-08-07T08:10:35;9.50;;;3.58;;
43670;SDS011;29267;50.906;7.248;2023-08-07T08:13:01;7.00;;;3.15;;
43670;SDS011;29267;50.906;7.248;2023-08-07T08:15:28;15.95;;;3.85;;
43670;SDS011;29267;50.906;7.248;2023-08-07T08:17:54;7.55;;;2.92;;
43670;SDS011;29267;50.906;7.248;2023-08-07T08:20:20;11.95;;;5.03;;
43670;SDS011;29267;50.906;7.248;2023-08-07T08:22:46;11.00;;;2.85;;
43670;SDS011;29267;50.906;7.248;2023-08-07T08:25:12;6.47;;;2.88;;
43670;SDS011;29267;50.906;7.248;2023-08-07T08:27:38;6.10;;;3.28;;
43670;SDS011;29267;50.906;7.248;2023-08-07T08:30:05;8.63;;;3.53;;
43670;SDS011;29267;50.906;7.248;2023-08-07T08:32:31;14.98;;;4.22;;
43670;SDS011;29267;50.906;7.248;2023-08-07T08:34:57;10.63;;;3.97;;
43670;SDS011;29267;50.906;7.248;2023-08-07T08:37:23;8.65;;;3.47;;
43670;SDS011;29267;50.906;7.248;2023-08-07T08:39:48;11.82;;;3.28;;
43670;SDS011;29267;50.906;7.248;2023-08-07T08:42:15;7.38;;;3.10;;
43670;SDS011;29267;50.906;7.248;2023-08-07T08:44:44;8.55;;;2.88;;
43670;SDS011;29267;50.906;7.248;2023-08-07T08:47:13;11.15;;;3.33;;
43670;SDS011;29267;50.906;7.248;2023-08-07T08:49:46;10.98;;;3.33;;
43670;SDS011;29267;50.906;7.248;2023-08-07T08:52:13;9.93;;;3.65;;
43670;SDS011;29267;50.906;7.248;2023-08-07T08:54:40;12.00;;;3.25;;
43670;SDS011;29267;50.906;7.248;2023-08-07T08:57:06;12.10;;;3.60;;
43670;SDS011;29267;50.906;7.248;2023-08-07T08:59:33;8.32;;;3.10;;
43670;SDS011;29267;50.906;7.248;2023-08-07T09:01:59;11.00;;;3.53;;
43670;SDS011;29267;50.906;7.248;2023-08-07T09:04:25;12.48;;;3.78;;
43670;SDS011;29267;50.906;7.248;2023-08-07T09:06:50;9.68;;;3.72;;
43670;SDS011;29267;50.906;7.248;2023-08-07T09:09:17;8.75;;;4.00;;
43670;SDS011;29267;50.906;7.248;2023-08-07T09:11:46;11.70;;;3.75;;
43670;SDS011;29267;50.906;7.248;2023-08-07T09:14:15;10.43;;;3.45;;
43670;SDS011;29267;50.906;7.248;2023-08-07T09:16:42;9.45;;;3.28;;
43670;SDS011;29267;50.906;7.248;2023-08-07T09:19:10;13.20;;;3.45;;
43670;SDS011;29267;50.906;7.248;2023-08-07T09:21:36;12.10;;;3.90;;
43670;SDS011;29267;50.906;7.248;2023-08-07T09:24:02;8.43;;;3.63;;
43670;SDS011;29267;50.906;7.248;2023-08-07T09:26:28;12.85;;;4.20;;
43670;SDS011;29267;50.906;7.248;2023-08-07T09:28:53;10.15;;;4.18;;
43670;SDS011;29267;50.906;7.248;2023-08-07T09:31:19;9.68;;;4.68;;
43670;SDS011;29267;50.906;7.248;2023-08-07T09:33:46;11.30;;;3.42;;
43670;SDS011;29267;50.906;7.248;2023-08-07T09:36:16;10.57;;;3.63;;
43670;SDS011;29267;50.906;7.248;2023-08-07T09:38:43;12.57;;;4.18;;
43670;SDS011;29267;50.906;7.248;2023-08-07T09:41:08;10.02;;;3.60;;
43670;SDS011;29267;50.906;7.248;2023-08-07T09:43:34;8.18;;;3.85;;
43670;SDS011;29267;50.906;7.248;2023-08-07T09:46:04;8.43;;;3.80;;
43670;SDS011;29267;50.906;7.248;2023-08-07T09:48:30;13.27;;;4.22;;
43670;SDS011;29267;50.906;7.248;2023-08-07T09:51:01;7.97;;;3.85;;
43670;SDS011;29267;50.906;7.248;2023-08-07T09:53:29;9.02;;;4.68;;
43670;SDS011;29267;50.906;7.248;2023-08-07T09:55:55;6.85;;;3.95;;
43670;SDS011;29267;50.906;7.248;2023-08-07T09:58:21;11.15;;;4.30;;
43670;SDS011;29267;50.906;7.248;2023-08-07T10:00:47;11.60;;;4.85;;
43670;SDS011;29267;50.906;7.248;2023-08-07T10:03:14;9.70;;;5.07;;
43670;SDS011;29267;50.906;7.248;2023-08-07T10:05:41;7.47;;;3.92;;
43670;SDS011;29267;50.906;7.248;2023-08-07T10:08:07;12.95;;;4.78;;
43670;SDS011;29267;50.906;7.248;2023-08-07T10:10:33;6.13;;;3.67;;
43670;SDS011;29267;50.906;7.248;2023-08-07T10:13:01;7.65;;;3.58;;
43670;SDS011;29267;50.906;7.248;2023-08-07T10:15:28;17.15;;;4.07;;
43670;SDS011;29267;50.906;7.248;2023-08-07T10:17:55;9.07;;;2.97;;
43670;SDS011;29267;50.906;7.248;2023-08-07T10:20:21;11.13;;;2.72;;
43670;SDS011;29267;50.906;7.248;2023-08-07T10:22:49;6.88;;;2.47;;
43670;SDS011;29267;50.906;7.248;2023-08-07T10:25:17;15.63;;;4.10;;
43670;SDS011;29267;50.906;7.248;2023-08-07T10:27:46;13.13;;;3.00;;
43670;SDS011;29267;50.906;7.248;2023-08-07T10:30:15;6.55;;;2.95;;
43670;SDS011;29267;50.906;7.248;2023-08-07T10:32:43;10.38;;;2.65;;
43670;SDS011;29267;50.906;7.248;2023-08-07T10:35:22;7.07;;;2.67;;
43670;SDS011;29267;50.906;7.248;2023-08-07T10:37:54;5.68;;;1.95;;
43670;SDS011;29267;50.906;7.248;2023-08-07T10:40:20;11.40;;;2.13;;
43670;SDS011;29267;50.906;7.248;2023-08-07T10:42:50;8.07;;;2.22;;
43670;SDS011;29267;50.906;7.248;2023-08-07T10:45:18;7.68;;;1.50;;
43670;SDS011;29267;50.906;7.248;2023-08-07T10:53:32;8.65;;;1.70;;
43670;SDS011;29267;50.906;7.248;2023-08-07T10:56:01;6.88;;;1.50;;
43670;SDS011;29267;50.906;7.248;2023-08-07T10:58:41;9.38;;;1.42;;
43670;SDS011;29267;50.906;7.248;2023-08-07T11:04:02;5.05;;;1.75;;
43670;SDS011;29267;50.906;7.248;2023-08-07T11:06:32;11.85;;;1.52;;
43670;SDS011;29267;50.906;7.248;2023-08-07T11:09:00;7.63;;;1.60;;
43670;SDS011;29267;50.906;7.248;2023-08-07T11:11:28;8.77;;;1.65;;
43670;SDS011;29267;50.906;7.248;2023-08-07T11:14:26;6.03;;;2.20;;
43670;SDS011;29267;50.906;7.248;2023-08-07T11:16:50;8.00;;;3.60;;
43670;SDS011;29267;50.906;7.248;2023-08-07T11:19:17;6.15;;;1.75;;
43670;SDS011;29267;50.906;7.248;2023-08-07T11:21:44;4.80;;;1.50;;
43670;SDS011;29267;50.906;7.248;2023-08-07T11:24:12;3.17;;;1.27;;
43670;SDS011;29267;50.906;7.248;2023-08-07T11:26:38;8.55;;;1.50;;
43670;SDS011;29267;50.906;7.248;2023-08-07T11:29:04;9.27;;;1.70;;
43670;SDS011;29267;50.906;7.248;2023-08-07T11:31:29;7.60;;;1.60;;
43670;SDS011;29267;50.906;7.248;2023-08-07T11:33:55;6.30;;;2.15;;
43670;SDS011;29267;50.906;7.248;2023-08-07T11:36:23;13.90;;;2.33;;
43670;SDS011;29267;50.906;7.248;2023-08-07T11:38:49;9.82;;;1.50;;
43670;SDS011;29267;50.906;7.248;2023-08-07T11:41:16;5.07;;;1.77;;
43670;SDS011;29267;50.906;7.248;2023-08-07T11:43:42;6.20;;;1.90;;
43670;SDS011;29267;50.906;7.248;2023-08-07T11:46:08;8.13;;;1.60;;
43670;SDS011;29267;50.906;7.248;2023-08-07T11:48:36;7.95;;;2.65;;
43670;SDS011;29267;50.906;7.248;2023-08-07T11:51:03;6.85;;;1.30;;
43670;SDS011;29267;50.906;7.248;2023-08-07T11:53:33;9.88;;;2.63;;
43670;SDS011;29267;50.906;7.248;2023-08-07T11:56:10;3.72;;;1.20;;
43670;SDS011;29267;50.906;7.248;2023-08-07T11:58:42;5.65;;;1.25;;
43670;SDS011;29267;50.906;7.248;2023-08-07T12:01:18;7.90;;;1.33;;
43670;SDS011;29267;50.906;7.248;2023-08-07T12:06:20;3.75;;;1.27;;
43670;SDS011;29267;50.906;7.248;2023-08-07T12:08:47;4.03;;;1.23;;
43670;SDS011;29267;50.906;7.248;2023-08-07T12:11:15;4.88;;;1.52;;
43670;SDS011;29267;50.906;7.248;2023-08-07T12:13:41;5.68;;;1.50;;
43670;SDS011;29267;50.906;7.248;2023-08-07T12:16:08;14.40;;;2.33;;
43670;SDS011;29267;50.906;7.248;2023-08-07T12:18:34;6.72;;;2.00;;
43670;SDS011;29267;50.906;7.248;2023-08-07T12:21:03;4.30;;;1.52;;
43670;SDS011;29267;50.906;7.248;2023-08-07T12:23:34;10.13;;;1.98;;
43670;SDS011;29267;50.906;7.248;2023-08-07T12:26:01;1.83;;;1.05;;
43670;SDS011;29267;50.906;7.248;2023-08-07T12:28:27;5.03;;;1.75;;
43670;SDS011;29267;50.906;7.248;2023-08-07T12:30:53;4.00;;;1.40;;
43670;SDS011;29267;50.906;7.248;2023-08-07T12:33:18;3.45;;;1.15;;
43670;SDS011;29267;50.906;7.248;2023-08-07T12:35:45;4.82;;;1.30;;
43670;SDS011;29267;50.906;7.248;2023-08-07T12:38:11;4.70;;;1.40;;
43670;SDS011;29267;50.906;7.248;2023-08-07T12:40:38;6.90;;;1.70;;
43670;SDS011;29267;50.906;7.248;2023-08-07T12:43:05;8.57;;;1.55;;
43670;SDS011;29267;50.906;7.248;2023-08-07T12:45:31;5.10;;;1.20;;
43670;SDS011;29267;50.906;7.248;2023-08-07T12:47:57;4.97;;;1.85;;
43670;SDS011;29267;50.906;7.248;2023-08-07T12:50:22;14.85;;;2.08;;
43670;SDS011;29267;50.906;7.248;2023-08-07T12:52:48;4.03;;;1.30;;
43670;SDS011;29267;50.906;7.248;2023-08-07T12:55:14;3.03;;;1.00;;
43670;SDS011;29267;50.906;7.248;2023-08-07T12:57:42;3.53;;;1.42;;
43670;SDS011;29267;50.906;7.248;2023-08-07T13:00:11;5.25;;;1.58;;
43670;SDS011;29267;50.906;7.248;2023-08-07T13:02:43;10.15;;;1.48;;
43670;SDS011;29267;50.906;7.248;2023-08-07T13:05:10;4.85;;;1.08;;
43670;SDS011;29267;50.906;7.248;2023-08-07T13:07:36;3.50;;;1.35;;
43670;SDS011;29267;50.906;7.248;2023-08-07T13:10:03;3.00;;;1.35;;
43670;SDS011;29267;50.906;7.248;2023-08-07T13:12:29;5.43;;;1.50;;
43670;SDS011;29267;50.906;7.248;2023-08-07T13:14:59;4.63;;;1.73;;
43670;SDS011;29267;50.906;7.248;2023-08-07T13:17:24;3.50;;;1.00;;
43670;SDS011;29267;50.906;7.248;2023-08-07T13:19:50;4.03;;;1.40;;
43670;SDS011;29267;50.906;7.248;2023-08-07T13:22:16;4.38;;;1.17;;
43670;SDS011;29267;50.906;7.248;2023-08-07T13:24:41;5.63;;;1.30;;
43670;SDS011;29267;50.906;7.248;2023-08-07T13:27:07;4.45;;;1.35;;
43670;SDS011;29267;50.906;7.248;2023-08-07T13:29:32;7.68;;;1.30;;
43670;SDS011;29267;50.906;7.248;2023-08-07T13:31:59;2.55;;;1.05;;
43670;SDS011;29267;50.906;7.248;2023-08-07T13:34:25;2.30;;;1.23;;
43670;SDS011;29267;50.906;7.248;2023-08-07T13:36:50;10.45;;;1.60;;
43670;SDS011;29267;50.906;7.248;2023-08-07T13:39:16;3.95;;;1.25;;
43670;SDS011;29267;50.906;7.248;2023-08-07T13:41:41;4.53;;;1.40;;
43670;SDS011;29267;50.906;7.248;2023-08-07T13:44:07;3.08;;;0.82;;
43670;SDS011;29267;50.906;7.248;2023-08-07T13:46:32;6.10;;;1.85;;
43670;SDS011;29267;50.906;7.248;2023-08-07T13:48:58;7.03;;;1.65;;
43670;SDS011;29267;50.906;7.248;2023-08-07T13:51:24;5.35;;;1.23;;
43670;SDS011;29267;50.906;7.248;2023-08-07T13:53:49;2.13;;;1.08;;
43670;SDS011;29267;50.906;7.248;2023-08-07T13:56:18;3.22;;;1.30;;
43670;SDS011;29267;50.906;7.248;2023-08-07T13:58:43;4.18;;;1.20;;
43670;SDS011;29267;50.906;7.248;2023-08-07T14:01:09;3.63;;;1.10;;
43670;SDS011;29267;50.906;7.248;2023-08-07T14:03:35;2.00;;;1.05;;
43670;SDS011;29267;50.906;7.248;2023-08-07T14:06:00;3.03;;;1.40;;
43670;SDS011;29267;50.906;7.248;2023-08-07T14:08:26;2.08;;;1.17;;
43670;SDS011;29267;50.906;7.248;2023-08-07T14:10:52;3.67;;;0.90;;
43670;SDS011;29267;50.906;7.248;2023-08-07T14:13:17;4.05;;;1.35;;
43670;SDS011;29267;50.906;7.248;2023-08-07T14:15:43;2.38;;;1.40;;
43670;SDS011;29267;50.906;7.248;2023-08-07T14:18:08;4.72;;;1.65;;
43670;SDS011;29267;50.906;7.248;2023-08-07T14:20:36;5.25;;;1.27;;
43670;SDS011;29267;50.906;7.248;2023-08-07T14:23:01;5.90;;;1.20;;
43670;SDS011;29267;50.906;7.248;2023-08-07T14:25:27;3.25;;;1.33;;
43670;SDS011;29267;50.906;7.248;2023-08-07T14:27:52;3.60;;;1.65;;
43670;SDS011;29267;50.906;7.248;2023-08-07T14:30:18;4.00;;;1.10;;
43670;SDS011;29267;50.906;7.248;2023-08-07T14:32:44;3.83;;;1.33;;
43670;SDS011;29267;50.906;7.248;2023-08-07T14:35:12;4.97;;;1.13;;
43670;SDS011;29267;50.906;7.248;2023-08-07T14:37:38;3.85;;;1.50;;
43670;SDS011;29267;50.906;7.248;2023-08-07T14:40:04;8.40;;;1.40;;
43670;SDS011;29267;50.906;7.248;2023-08-07T14:42:30;5.63;;;1.70;;
43670;SDS011;29267;50.906;7.248;2023-08-07T14:44:56;12.60;;;1.60;;
43670;SDS011;29267;50.906;7.248;2023-08-07T14:47:22;4.20;;;1.38;;
43670;SDS011;29267;50.906;7.248;2023-08-07T14:49:47;4.35;;;1.70;;
43670;SDS011;29267;50.906;7.248;2023-08-07T14:52:13;3.70;;;1.40;;